Time;durP1;ratioP1;P1;durP2;ratioP2;P2;SDS_P1;SDS_P2;PMS_P1;PMS_P2;Temp;Humidity;BMP_temperature;BMP_pressure;BME280_temperature;BME280_humidity;BME280_pressure;Samples;Min_cycle;Max_cycle;Signal;HPM_P1;HPM_P2
2021/05/20 00:00:23;;;;;;;2.63;1.50;;;6.80;99.90;;;7.51;69.64;94670.97;5066785;28;20256;-73
2021/05/20 00:02:52;;;;;;;2.23;1.27;;;6.90;99.90;;;7.57;69.74;94675.31;5032162;28;20207;-74
2021/05/20 00:05:19;;;;;;;1.63;1.37;;;6.90;99.90;;;7.54;69.83;94677.59;5051109;28;20176;-73
2021/05/20 00:07:46;;;;;;;1.33;1.13;;;6.90;99.90;;;7.57;69.82;94677.16;5048764;28;20180;-73
2021/05/20 00:10:17;;;;;;;2.07;1.00;;;6.90;99.90;;;7.62;70.21;94679.94;5038168;28;20847;-73
2021/05/20 00:12:46;;;;;;;1.13;1.03;;;7.00;99.90;;;7.56;70.14;94675.53;5040536;28;20183;-74
2021/05/20 00:15:14;;;;;;;1.47;1.13;;;6.90;99.90;;;7.52;70.32;94679.69;5051355;28;20171;-74
2021/05/20 00:17:40;;;;;;;2.00;1.30;;;6.90;99.90;;;7.57;70.48;94679.78;5045540;28;20186;-74
2021/05/20 00:20:10;;;;;;;2.93;1.00;;;6.90;99.90;;;7.56;70.41;94678.16;5045345;28;20208;-73
2021/05/20 00:22:36;;;;;;;1.10;1.00;;;6.90;99.90;;;7.59;70.04;94690.91;5015560;28;20198;-73
2021/05/20 00:25:05;;;;;;;1.50;0.97;;;6.90;99.90;;;7.60;70.45;94688.06;5066760;28;20169;-73
2021/05/20 00:27:34;;;;;;;2.00;0.80;;;7.00;99.90;;;7.57;69.92;94690.34;5049533;28;20183;-72
2021/05/20 00:30:00;;;;;;;1.07;0.90;;;7.00;99.90;;;7.57;70.11;94685.06;5048784;28;20214;-72
2021/05/20 00:32:26;;;;;;;1.30;0.93;;;6.90;99.90;;;7.58;70.50;94684.03;5065746;28;20172;-74
2021/05/20 00:34:55;;;;;;;0.80;0.80;;;6.90;99.90;;;7.47;70.52;94672.44;5033075;28;20167;-73
2021/05/20 00:37:24;;;;;;;1.13;1.00;;;7.20;99.90;;;7.50;70.44;94685.16;5031853;28;20199;-74
2021/05/20 00:39:54;;;;;;;1.00;0.70;;;6.80;99.90;;;7.51;70.39;94678.06;5050675;28;20180;-73
2021/05/20 00:42:20;;;;;;;1.10;0.70;;;6.80;99.90;;;7.50;70.58;94677.25;5031790;28;20207;-72
2021/05/20 00:44:57;;;;;;;1.00;0.90;;;6.80;99.90;;;7.55;70.51;94693.22;5048345;28;20205;-73
2021/05/20 00:47:30;;;;;;;0.80;0.80;;;6.80;99.90;;;7.53;70.70;94683.91;5063711;28;20690;-73
2021/05/20 00:49:57;;;;;;;1.20;1.10;;;6.80;99.90;;;7.45;70.84;94678.97;5049217;28;20289;-73
2021/05/20 00:52:24;;;;;;;1.30;1.10;;;6.80;99.90;;;7.43;70.61;94689.72;5064811;28;20198;-73
2021/05/20 00:54:56;;;;;;;1.47;0.80;;;6.70;99.90;;;7.48;71.32;94691.69;5050756;28;20167;-74
2021/05/20 00:57:25;;;;;;;3.23;0.90;;;6.80;99.90;;;7.48;70.67;94694.34;5031620;28;20210;-73
2021/05/20 00:59:52;;;;;;;1.67;1.10;;;6.80;99.90;;;7.44;71.01;94683.44;5066175;28;20199;-74
2021/05/20 01:02:19;;;;;;;0.80;0.80;;;6.60;99.90;;;7.35;70.46;94682.16;5047963;28;20176;-74
2021/05/20 01:04:45;;;;;;;0.90;0.90;;;6.70;99.90;;;7.31;70.75;94681.00;5065407;28;20189;-73
2021/05/20 01:07:11;;;;;;;1.13;1.00;;;6.60;99.90;;;7.20;70.71;94682.56;5031446;28;20278;-73
2021/05/20 01:09:38;;;;;;;2.43;1.23;;;6.50;99.90;;;7.13;70.63;94679.22;5049095;28;20656;-73
2021/05/20 01:12:06;;;;;;;1.30;1.20;;;6.50;99.90;;;7.12;71.00;94682.06;5049242;28;20188;-73
2021/05/20 01:14:45;;;;;;;1.70;1.50;;;6.60;99.90;;;7.07;70.74;94682.75;5032187;28;20179;-73
2021/05/20 01:17:14;;;;;;;3.40;1.60;;;6.80;99.90;;;7.09;70.76;94683.31;5047716;28;20552;-73
2021/05/20 01:19:45;;;;;;;1.97;1.60;;;6.40;99.90;;;7.07;70.91;94695.91;5032539;28;20194;-73
2021/05/20 01:22:14;;;;;;;1.70;1.60;;;6.50;99.90;;;7.07;71.14;94687.19;5027558;28;20180;-74
2021/05/20 01:24:46;;;;;;;2.90;2.00;;;6.50;99.90;;;7.12;70.83;94679.41;5031127;28;20187;-74
2021/05/20 01:27:14;;;;;;;3.17;2.30;;;6.40;99.90;;;7.14;70.86;94682.66;5048350;28;20177;-74
2021/05/20 01:29:46;;;;;;;2.53;2.33;;;6.50;99.90;;;7.08;70.88;94678.28;5048237;28;20182;-73
2021/05/20 01:32:12;;;;;;;2.53;2.33;;;6.40;99.90;;;7.10;72.05;94676.22;5030913;28;20189;-74
2021/05/20 01:34:41;;;;;;;3.10;2.90;;;6.40;99.90;;;7.06;71.45;94675.84;5047897;28;20187;-73
2021/05/20 01:37:11;;;;;;;2.80;2.60;;;6.40;99.90;;;7.06;70.66;94683.75;5046583;28;20207;-73
2021/05/20 01:39:40;;;;;;;3.10;2.10;;;6.40;99.90;;;7.03;71.07;94683.41;5048462;28;20269;-74
2021/05/20 01:42:08;;;;;;;2.50;2.30;;;6.40;99.90;;;7.02;71.81;94676.50;5047399;28;20575;-73
2021/05/20 01:44:37;;;;;;;2.30;2.10;;;6.40;99.90;;;6.98;71.43;94681.44;5031333;28;20194;-73
2021/05/20 01:47:05;;;;;;;2.30;2.10;;;6.30;99.90;;;6.92;71.42;94681.50;5048016;28;20187;-72
2021/05/20 01:49:34;;;;;;;2.10;2.00;;;6.30;99.90;;;6.90;71.18;94683.56;5047123;28;20214;-73
2021/05/20 01:52:00;;;;;;;2.00;1.90;;;6.30;99.90;;;6.80;71.71;94673.56;5048610;28;20266;-72
2021/05/20 01:54:26;;;;;;;2.47;2.23;;;6.40;99.90;;;6.82;71.52;94682.03;5048400;28;20285;-73
2021/05/20 01:56:54;;;;;;;2.40;2.20;;;6.20;99.90;;;6.83;72.03;94686.28;5048949;28;20795;-73
2021/05/20 01:59:20;;;;;;;2.03;1.93;;;6.20;99.90;;;6.84;71.80;94690.53;5047220;28;20276;-74
2021/05/20 02:01:48;;;;;;;2.40;2.20;;;6.20;99.90;;;6.86;72.19;94679.78;5047831;28;20223;-72
2021/05/20 02:04:17;;;;;;;2.20;2.10;;;6.20;99.90;;;6.98;71.86;94688.56;5064333;28;20210;-73
2021/05/20 02:06:45;;;;;;;2.50;2.20;;;6.30;99.90;;;7.09;70.98;94683.31;5062666;28;20187;-73
2021/05/20 02:09:11;;;;;;;1.90;1.67;;;6.40;99.90;;;7.11;71.60;94689.19;5045541;28;20635;-73
2021/05/20 02:11:37;;;;;;;2.47;2.00;;;6.40;99.90;;;7.22;71.74;94691.03;5043479;28;20194;-74
2021/05/20 02:14:03;;;;;;;3.83;1.90;;;6.50;99.90;;;7.24;71.87;94688.19;5048443;28;20203;-74
2021/05/20 02:16:29;;;;;;;1.67;1.57;;;6.50;99.90;;;7.27;72.11;94692.19;5044388;28;20238;-73
2021/05/20 02:18:55;;;;;;;1.60;1.50;;;6.60;99.90;;;7.30;72.46;94697.84;5011897;28;20273;-75
2021/05/20 02:21:21;;;;;;;1.93;1.60;;;6.60;99.90;;;7.34;72.62;94685.81;5042423;28;20245;-74
2021/05/20 02:23:47;;;;;;;2.10;1.87;;;6.80;99.90;;;7.33;72.27;94680.75;5048735;28;20254;-72
2021/05/20 02:26:14;;;;;;;2.60;1.70;;;6.70;99.90;;;7.38;72.18;94688.81;5048988;28;20187;-73
2021/05/20 02:28:40;;;;;;;2.03;1.90;;;6.70;99.90;;;7.46;72.00;94691.91;5048579;28;20252;-73
2021/05/20 02:31:06;;;;;;;2.40;1.77;;;6.80;99.90;;;7.51;72.16;94691.25;5046812;28;20675;-73
2021/05/20 02:33:35;;;;;;;2.97;1.90;;;6.80;99.90;;;7.51;72.17;94678.06;5045384;28;20189;-74
2021/05/20 02:36:03;;;;;;;2.00;1.80;;;6.80;99.90;;;7.47;72.49;94682.16;5064356;28;20211;-74
2021/05/20 02:38:29;;;;;;;2.20;2.00;;;6.90;99.90;;;7.51;72.37;94692.06;5063671;28;20211;-74
2021/05/20 02:41:01;;;;;;;3.10;1.97;;;6.90;99.90;;;7.48;72.88;94700.41;5065199;28;20176;-73
2021/05/20 02:43:27;;;;;;;2.13;1.93;;;6.90;99.90;;;7.50;72.43;94693.06;5062962;28;20653;-73
2021/05/20 02:45:53;;;;;;;2.97;2.07;;;6.90;99.90;;;7.52;72.80;94690.22;5067842;28;20176;-73
2021/05/20 02:48:19;;;;;;;2.00;1.90;;;6.90;99.90;;;7.51;72.72;94688.59;5067690;28;20202;-74
2021/05/20 02:50:45;;;;;;;3.60;2.53;;;7.00;99.90;;;7.51;72.41;94689.41;5051440;28;20660;-73
2021/05/20 02:53:11;;;;;;;2.70;2.50;;;6.90;99.90;;;7.56;72.38;94691.34;5067522;28;20726;-74
2021/05/20 02:55:40;;;;;;;2.53;2.33;;;6.90;99.90;;;7.55;72.81;94689.78;5052152;28;20555;-74
2021/05/20 02:58:06;;;;;;;3.07;2.50;;;6.90;99.90;;;7.56;72.83;94686.91;5052364;28;20176;-72
2021/05/20 03:00:33;;;;;;;6.77;2.40;;;6.90;99.90;;;7.58;72.50;94689.31;5052974;28;20596;-72
2021/05/20 03:03:00;;;;;;;3.03;2.73;;;7.10;99.90;;;7.61;72.79;94694.13;5034817;28;20622;-74
2021/05/20 03:05:27;;;;;;;2.40;2.20;;;7.20;99.90;;;7.56;72.94;94697.44;5034609;28;20183;-74
2021/05/20 03:07:54;;;;;;;2.73;2.20;;;7.30;99.90;;;7.52;72.96;94701.56;5034058;28;20173;-74
2021/05/20 03:10:22;;;;;;;3.33;2.10;;;7.20;99.90;;;7.54;72.83;94696.88;5065004;28;20802;-74
2021/05/20 03:12:49;;;;;;;2.20;2.00;;;7.00;99.90;;;7.61;72.50;94694.94;5036466;28;20193;-73
2021/05/20 03:15:17;;;;;;;2.50;2.10;;;7.40;99.90;;;7.57;72.88;94695.63;5051507;28;20181;-74
2021/05/20 03:17:45;;;;;;;2.20;1.90;;;7.00;99.90;;;7.70;73.24;94703.31;5033692;28;20823;-74
2021/05/20 03:20:13;;;;;;;3.03;2.10;;;7.30;99.90;;;7.74;72.71;94707.13;5051294;28;20239;-73
2021/05/20 03:22:40;;;;;;;1.83;1.70;;;7.00;99.90;;;7.71;72.89;94689.09;5051177;28;20207;-73
2021/05/20 03:25:07;;;;;;;1.70;1.60;;;7.00;99.90;;;7.75;72.73;94706.09;5068202;28;20194;-72
2021/05/20 03:27:35;;;;;;;2.30;1.70;;;7.00;99.90;;;7.70;72.93;94698.03;5051748;28;20187;-72
2021/05/20 03:30:02;;;;;;;1.70;1.50;;;7.00;99.90;;;7.73;72.63;94698.41;5052729;28;20165;-73
2021/05/20 03:32:28;;;;;;;1.60;1.50;;;7.00;99.90;;;7.73;73.45;94708.16;5032994;28;20198;-73
2021/05/20 03:34:56;;;;;;;1.53;1.43;;;6.50;99.90;;;7.71;72.80;94712.84;5051613;28;20582;-73
2021/05/20 03:37:22;;;;;;;1.93;1.63;;;7.00;99.90;;;7.72;73.19;94711.84;5051309;28;20211;-73
2021/05/20 03:39:48;;;;;;;3.73;1.70;;;7.00;99.90;;;7.66;72.96;94712.72;5050747;28;20208;-73
2021/05/20 03:42:14;;;;;;;2.67;2.00;;;6.90;99.90;;;7.58;72.89;94718.34;5049907;28;20236;-73
2021/05/20 03:44:40;;;;;;;3.63;1.73;;;6.90;99.90;;;7.64;73.04;94718.22;5051178;28;20188;-73
2021/05/20 03:47:09;;;;;;;2.07;1.40;;;7.80;99.90;;;7.71;73.47;94715.50;5049332;28;20188;-73
2021/05/20 03:49:37;;;;;;;2.03;1.43;;;7.00;99.90;;;7.74;73.43;94720.31;5033972;28;20182;-74
2021/05/20 03:52:06;;;;;;;2.90;1.60;;;7.00;99.90;;;7.70;72.72;94713.88;5050104;28;20215;-73
2021/05/20 03:54:33;;;;;;;1.73;1.63;;;7.00;99.90;;;7.70;73.55;94719.16;5066194;28;20225;-73
2021/05/20 03:57:02;;;;;;;2.83;1.83;;;7.10;99.90;;;7.67;73.66;94714.31;5048908;28;20253;-72
2021/05/20 03:59:30;;;;;;;2.17;1.60;;;6.90;99.90;;;7.63;73.57;94718.44;5050745;28;20180;-74
2021/05/20 04:01:59;;;;;;;1.77;1.67;;;7.10;99.90;;;7.64;73.00;94715.59;5049978;28;20286;-73
2021/05/20 04:04:27;;;;;;;3.07;1.57;;;6.90;99.90;;;7.60;73.52;94724.19;5051716;28;20200;-73
2021/05/20 04:06:55;;;;;;;3.23;1.63;;;6.90;99.90;;;7.63;73.86;94713.16;5050352;28;20219;-73
2021/05/20 04:09:24;;;;;;;1.77;1.67;;;6.90;99.90;;;7.63;73.10;94718.44;5066568;28;20183;-73
2021/05/20 04:11:50;;;;;;;3.17;1.67;;;7.10;99.90;;;7.65;73.27;94726.97;5030024;28;20188;-73
2021/05/20 04:14:16;;;;;;;1.57;1.30;;;6.90;99.90;;;7.68;73.36;94729.13;5030456;28;20266;-73
2021/05/20 04:16:45;;;;;;;1.50;1.40;;;6.90;99.90;;;7.66;73.68;94713.53;5049099;28;20835;-73
2021/05/20 04:19:15;;;;;;;1.33;1.23;;;6.90;99.90;;;7.62;73.16;94722.13;5051560;28;20190;-72
2021/05/20 04:21:42;;;;;;;1.93;1.10;;;6.90;99.90;;;7.62;73.37;94724.78;5051209;28;20656;-73
2021/05/20 04:24:08;;;;;;;1.50;1.20;;;6.90;99.90;;;7.59;73.54;94726.00;5065821;28;20160;-73
2021/05/20 04:26:34;;;;;;;2.13;1.30;;;6.80;99.90;;;7.63;73.33;94723.72;5049330;28;20285;-73
2021/05/20 04:28:59;;;;;;;1.90;1.10;;;6.90;99.90;;;7.71;73.59;94731.31;5032899;28;20218;-73
2021/05/20 04:31:25;;;;;;;2.87;1.20;;;6.90;99.90;;;7.70;73.75;94732.34;5032900;28;20179;-72
2021/05/20 04:33:54;;;;;;;2.20;1.27;;;7.10;99.90;;;7.70;73.69;94734.97;5046102;28;20270;-73
2021/05/20 04:36:22;;;;;;;1.70;1.27;;;6.90;99.90;;;7.69;73.70;94746.56;5056756;28;20262;-74
2021/05/20 04:38:48;;;;;;;1.83;1.40;;;6.90;99.90;;;7.77;73.45;94753.34;5023826;28;20198;-74
2021/05/20 04:41:14;;;;;;;2.57;1.40;;;7.00;99.90;;;7.84;73.59;94751.41;5043178;28;20171;-74
2021/05/20 04:43:45;;;;;;;1.40;1.30;;;7.40;99.90;;;7.94;73.67;94762.22;5047992;28;20789;-73
2021/05/20 04:46:11;;;;;;;1.43;1.33;;;7.10;99.90;;;7.95;74.06;94759.38;5048543;28;20180;-74
2021/05/20 04:48:37;;;;;;;1.50;1.30;;;7.20;99.90;;;7.96;74.00;94752.22;5066425;28;20603;-74
2021/05/20 04:51:03;;;;;;;1.57;1.47;;;7.20;99.90;;;7.95;73.81;94767.28;5047159;28;20205;-73
2021/05/20 04:53:29;;;;;;;3.20;1.90;;;7.20;99.90;;;8.01;73.79;94771.66;5039265;28;20211;-73
2021/05/20 04:55:55;;;;;;;2.13;1.70;;;7.30;99.90;;;8.09;74.40;94773.16;5040732;28;20211;-74
2021/05/20 04:58:22;;;;;;;2.50;2.00;;;7.30;99.90;;;8.13;73.64;94780.38;5045108;28;20184;-74
2021/05/20 05:00:50;;;;;;;2.00;1.90;;;7.40;99.90;;;8.15;74.18;94780.97;5057614;28;20189;-73
2021/05/20 05:03:16;;;;;;;3.07;2.20;;;7.50;99.90;;;8.26;73.95;94777.53;5006855;28;20180;-73
2021/05/20 05:05:42;;;;;;;2.00;1.80;;;7.40;99.90;;;8.22;74.03;94781.69;5058193;28;20184;-74
2021/05/20 05:08:09;;;;;;;1.93;1.30;;;8.00;99.90;;;8.20;73.88;94790.84;5044144;28;20181;-73
2021/05/20 05:10:34;;;;;;;1.70;1.50;;;7.50;99.90;;;8.25;74.50;94786.50;5026563;28;20195;-74
2021/05/20 05:13:00;;;;;;;2.43;1.13;;;7.20;99.90;;;8.27;74.31;94780.97;5042494;28;20172;-73
2021/05/20 05:15:26;;;;;;;1.50;1.40;;;7.50;99.90;;;8.24;74.18;94784.09;5013819;28;20226;-73
2021/05/20 05:17:52;;;;;;;1.20;1.10;;;7.50;99.90;;;8.18;73.85;94777.06;5040298;28;20172;-74
2021/05/20 05:20:20;;;;;;;1.33;1.23;;;7.50;99.90;;;8.08;73.90;94772.38;5043007;28;20164;-73
2021/05/20 05:22:46;;;;;;;3.07;1.90;;;7.40;99.90;;;8.08;74.40;94764.44;5029466;28;20181;-74
2021/05/20 05:25:12;;;;;;;1.10;0.90;;;7.30;99.90;;;8.07;74.19;94770.75;5033622;28;20254;-73
2021/05/20 05:27:38;;;;;;;1.60;1.20;;;7.30;99.90;;;8.13;74.21;94774.31;5058434;28;20279;-74
2021/05/20 05:30:06;;;;;;;1.90;1.20;;;7.40;99.90;;;8.22;74.22;94775.59;5032302;28;20270;-74
2021/05/20 05:32:32;;;;;;;3.50;1.10;;;7.40;99.90;;;8.24;73.64;94762.97;5029923;28;21027;-75
2021/05/20 05:34:58;;;;;;;1.33;1.00;;;7.50;99.90;;;8.39;74.15;94775.75;4998853;28;20201;-73
2021/05/20 05:37:26;;;;;;;1.10;1.00;;;7.60;99.90;;;8.45;74.26;94790.69;5021290;28;20315;-77
2021/05/20 05:39:53;;;;;;;1.00;0.70;;;7.60;99.90;;;8.49;74.02;94776.00;5032996;28;20226;-73
2021/05/20 05:42:18;;;;;;;1.07;0.90;;;7.70;99.90;;;8.52;73.98;94791.38;5046224;28;20224;-72
2021/05/20 05:44:44;;;;;;;1.33;1.00;;;7.70;99.90;;;8.70;73.93;94785.97;5016963;28;20593;-73
2021/05/20 05:47:10;;;;;;;1.73;1.00;;;7.90;99.90;;;8.71;74.14;94796.31;5038253;28;20183;-73
2021/05/20 05:49:43;;;;;;;1.30;1.10;;;7.90;99.90;;;8.80;73.96;94788.81;5040671;28;20192;-74
2021/05/20 05:52:16;;;;;;;0.97;0.70;;;8.10;99.90;;;8.92;74.29;94794.91;5041054;28;20188;-75
2021/05/20 05:54:42;;;;;;;1.27;1.07;;;8.20;99.90;;;9.09;74.42;94795.81;5041485;28;20188;-75
2021/05/20 05:57:08;;;;;;;1.30;0.90;;;8.30;99.90;;;9.22;74.13;94795.56;5047444;28;20212;-74
2021/05/20 05:59:34;;;;;;;1.67;0.97;;;8.50;99.90;;;9.32;74.42;94792.31;5039140;28;20224;-76
2021/05/20 06:02:00;;;;;;;1.00;0.80;;;8.60;99.90;;;9.42;74.43;94797.81;5040523;28;20176;-74
2021/05/20 06:04:27;;;;;;;0.80;0.77;;;8.70;99.90;;;9.49;74.31;94787.88;5044951;28;20231;-72
2021/05/20 06:06:53;;;;;;;1.60;1.30;;;8.80;99.90;;;9.58;74.32;94793.59;5031132;28;20194;-74
2021/05/20 06:09:18;;;;;;;1.10;0.90;;;8.90;99.90;;;9.54;74.66;94779.22;5026511;28;20238;-73
2021/05/20 06:11:47;;;;;;;0.80;0.80;;;8.90;99.90;;;9.51;74.36;94806.16;5011704;28;20185;-74
2021/05/20 06:14:13;;;;;;;1.63;0.70;;;8.80;99.90;;;9.62;74.49;94797.38;4996009;28;20222;-73
2021/05/20 06:16:41;;;;;;;1.50;1.00;;;8.90;99.90;;;9.55;74.39;94805.47;5029722;28;20205;-74
2021/05/20 06:19:13;;;;;;;0.60;0.50;;;8.90;99.90;;;9.56;74.50;94795.69;5032139;28;20696;-75
2021/05/20 06:21:39;;;;;;;1.27;0.73;;;8.90;99.90;;;9.67;74.11;94810.72;5039699;28;20659;-74
2021/05/20 06:24:11;;;;;;;0.93;0.50;;;8.90;99.90;;;9.66;74.28;94799.34;5018263;28;20188;-75
2021/05/20 06:26:37;;;;;;;0.50;0.50;;;8.90;99.90;;;9.64;74.37;94796.09;5030274;28;20199;-75
2021/05/20 06:29:04;;;;;;;2.00;0.63;;;8.90;99.90;;;9.57;74.41;94802.59;5041314;28;20184;-75
2021/05/20 06:31:31;;;;;;;1.30;0.50;;;8.90;99.90;;;9.62;73.98;94814.06;5047956;28;20271;-73
2021/05/20 06:34:01;;;;;;;0.67;0.50;;;8.90;99.90;;;9.63;74.34;94825.47;5051682;28;20222;-75
2021/05/20 06:36:27;;;;;;;1.70;0.60;;;8.90;99.90;;;9.67;74.32;94816.03;5049544;28;20614;-74
2021/05/20 06:38:55;;;;;;;0.90;0.60;;;9.00;99.90;;;9.69;74.03;94816.56;5068143;28;20184;-73
2021/05/20 06:41:22;;;;;;;1.10;0.60;;;8.90;99.90;;;9.79;74.14;94825.50;5017711;28;20191;-74
2021/05/20 06:43:48;;;;;;;1.20;0.67;;;9.00;99.90;;;9.89;73.98;94829.38;5046968;28;20179;-74
2021/05/20 06:46:14;;;;;;;0.60;0.40;;;9.20;99.90;;;9.87;74.34;94813.72;5026269;28;20197;-74
2021/05/20 06:48:40;;;;;;;0.67;0.40;;;9.20;99.90;;;9.82;73.88;94832.19;5047435;28;20192;-73
2021/05/20 06:51:06;;;;;;;0.63;0.50;;;9.10;99.90;;;9.80;74.17;94826.31;5050966;28;20188;-74
2021/05/20 06:53:37;;;;;;;0.47;0.47;;;9.10;99.90;;;9.91;74.27;94845.81;5051217;28;20195;-74
2021/05/20 06:56:05;;;;;;;0.87;0.63;;;9.20;99.90;;;9.69;74.20;94833.25;5050407;28;20215;-72
2021/05/20 07:01:18;;;;;;;0.50;0.50;;;9.10;99.90;;;9.92;74.17;94848.25;5045935;28;20318;-74
2021/05/20 07:03:44;;;;;;;0.50;0.50;;;9.20;99.90;;;10.01;74.08;94836.22;5023561;28;20678;-72
2021/05/20 07:06:12;;;;;;;0.60;0.43;;;9.40;99.90;;;10.14;74.06;94848.44;5045491;28;20183;-74
2021/05/20 07:08:39;;;;;;;1.17;0.50;;;10.00;99.90;;;10.44;73.95;94848.91;5051571;28;20192;-78
2021/05/20 07:11:06;;;;;;;1.40;0.30;;;9.80;99.90;;;10.44;73.93;94842.84;5061266;28;20189;-78
2021/05/20 07:13:33;;;;;;;0.55;0.50;;;9.20;99.90;;;10.29;74.00;94838.06;5039512;28;20887;-75
2021/05/20 07:15:59;;;;;;;2.30;0.40;;;9.80;99.90;;;10.38;73.82;94849.06;5042676;28;20204;-75
2021/05/20 07:18:26;;;;;;;0.43;0.43;;;9.80;99.90;;;10.56;74.35;94851.50;5032351;28;20174;-76
2021/05/20 07:20:52;;;;;;;1.33;0.50;;;9.90;99.90;;;10.48;74.01;94855.34;5032714;28;20198;-75
2021/05/20 07:23:21;;;;;;;0.57;0.40;;;9.90;99.90;;;10.65;73.98;94845.56;5016270;28;20282;-75
2021/05/20 07:25:47;;;;;;;0.80;0.50;;;10.00;99.90;;;10.54;74.21;94846.44;5034890;28;20695;-73
2021/05/20 07:28:19;;;;;;;0.80;0.40;;;9.90;99.90;;;10.60;73.94;94853.44;5052448;28;20177;-77
2021/05/20 07:30:45;;;;;;;1.37;0.40;;;10.00;99.90;;;10.67;73.97;94853.28;5039550;28;20288;-73
2021/05/20 07:33:12;;;;;;;0.80;0.40;;;10.00;99.90;;;10.59;74.01;94857.13;5051412;28;20683;-76
2021/05/20 07:35:41;;;;;;;2.80;0.60;;;10.00;99.90;;;10.49;73.57;94856.16;5053618;28;20606;-76
2021/05/20 07:38:07;;;;;;;1.10;0.60;;;9.90;99.90;;;10.51;73.98;94852.22;5051340;28;20260;-75
2021/05/20 07:40:34;;;;;;;0.70;0.50;;;10.00;99.90;;;10.57;74.22;94869.03;5053008;28;20690;-76
2021/05/20 07:43:00;;;;;;;0.40;0.40;;;10.00;99.90;;;10.72;74.20;94863.97;5072409;28;20198;-74
2021/05/20 07:45:26;;;;;;;0.60;0.60;;;10.10;99.90;;;10.75;73.74;94863.47;5051361;28;20179;-74
2021/05/20 07:47:52;;;;;;;0.73;0.40;;;10.10;99.90;;;10.68;74.04;94860.19;5050757;28;20187;-75
2021/05/20 07:50:21;;;;;;;0.77;0.63;;;10.10;99.90;;;10.60;73.76;94863.25;5051095;28;20187;-77
2021/05/20 07:52:47;;;;;;;0.67;0.60;;;10.00;99.90;;;10.68;73.64;94870.78;5050338;28;20171;-75
2021/05/20 07:55:14;;;;;;;0.60;0.60;;;10.00;99.90;;;10.91;73.67;94878.59;5051007;28;20606;-76
2021/05/20 07:57:41;;;;;;;0.50;0.40;;;10.20;99.90;;;11.20;73.91;94879.28;5033985;28;20282;-75
2021/05/20 08:00:12;;;;;;;1.73;0.50;;;10.40;99.90;;;11.69;73.79;94888.97;5034607;28;20195;-75
2021/05/20 08:05:19;;;;;;;0.73;0.60;;;11.20;99.90;;;12.24;73.64;94862.25;5052197;28;20190;-76
2021/05/20 08:08:18;;;;;;;1.87;0.60;;;11.50;99.90;;;12.52;73.85;94876.34;5034617;28;20168;-76
2021/05/20 08:13:07;;;;;;;1.23;0.90;;;12.30;99.90;;;13.36;73.82;94883.41;5050392;28;20524;-73
2021/05/20 08:15:33;;;;;;;1.13;0.50;;;12.70;99.90;;;13.43;73.56;94851.22;5050667;28;20168;-75
2021/05/20 08:17:59;;;;;;;0.93;0.80;;;13.00;99.90;;;13.41;73.53;94849.88;5050239;28;20187;-75
2021/05/20 08:20:25;;;;;;;1.77;0.70;;;13.00;99.90;;;13.35;73.35;94871.16;5065829;28;20180;-73
2021/05/20 08:22:51;;;;;;;0.80;0.60;;;13.00;99.90;;;13.08;73.68;94864.28;5050644;28;20179;-75
2021/05/20 08:25:20;;;;;;;1.23;0.70;;;12.80;99.90;;;12.74;73.14;94855.78;5033677;28;20201;-73
2021/05/20 08:27:46;;;;;;;1.43;0.80;;;12.60;99.90;;;12.63;73.39;94854.09;5045972;28;20272;-76
2021/05/20 08:30:13;;;;;;;0.65;0.60;;;12.40;99.90;;;12.50;73.04;94889.88;5039279;28;20444;-73
2021/05/20 08:32:39;;;;;;;1.80;0.50;;;12.30;99.90;;;12.92;72.90;94886.53;5040563;28;20675;-75
2021/05/20 08:35:08;;;;;;;1.70;0.70;;;12.50;99.90;;;13.56;72.93;94892.59;5048146;28;20238;-74
2021/05/20 08:37:35;;;;;;;0.67;0.67;;;13.00;99.90;;;14.59;73.21;94912.19;5046494;28;20544;-74
2021/05/20 08:40:08;;;;;;;1.10;0.50;;;13.90;99.90;;;15.54;73.09;94886.59;5042769;28;20178;-73
2021/05/20 08:42:36;;;;;;;2.60;0.70;;;15.00;99.90;;;15.61;72.84;94879.88;5029177;28;20168;-74
2021/05/20 08:45:15;;;;;;;0.70;0.70;;;15.30;99.90;;;15.43;72.71;94858.25;5033179;28;20261;-75
2021/05/20 08:47:43;;;;;;;0.63;0.60;;;15.20;99.90;;;15.32;72.74;94878.84;5050896;28;20210;-75
2021/05/20 08:50:12;;;;;;;0.60;0.60;;;15.00;99.90;;;14.99;72.54;94880.19;5050054;28;20199;-75
2021/05/20 08:52:42;;;;;;;0.60;0.50;;;14.70;99.90;;;14.79;72.45;94848.97;5030665;28;20995;-74
2021/05/20 08:55:14;;;;;;;2.00;0.50;;;14.50;99.90;;;14.91;72.35;94874.59;5030961;28;20187;-74
2021/05/20 08:57:41;;;;;;;0.63;0.50;;;14.50;99.90;;;14.98;72.29;94854.56;5045994;28;20602;-73
2021/05/20 09:00:11;;;;;;;0.50;0.50;;;14.60;99.90;;;15.40;72.38;94865.75;5032870;28;20190;-74
2021/05/20 09:02:40;;;;;;;1.00;0.70;;;14.90;99.90;;;16.28;71.87;94898.06;5066461;28;20793;-74
2021/05/20 09:05:23;;;;;;;0.80;0.50;;;15.70;99.90;;;17.19;71.75;94896.72;5044120;28;20177;-72
2021/05/20 09:07:53;;;;;;;0.60;0.43;;;17.90;99.90;;;18.29;71.32;94953.84;5028524;28;20470;-73
2021/05/20 09:10:24;;;;;;;1.17;0.50;;;18.00;99.90;;;20.99;71.28;94957.94;5042973;28;20191;-73
2021/05/20 09:12:53;;;;;;;1.50;0.40;;;20.60;99.90;;;21.27;71.16;94835.44;5032468;28;20187;-71
2021/05/20 09:15:28;;;;;;;2.37;1.60;;;21.80;99.90;;;19.77;71.08;94805.38;5048698;28;20187;-71
2021/05/20 09:18:11;;;;;;;1.60;1.00;;;20.90;99.90;;;17.13;70.81;94798.69;5049045;28;20666;-72
2021/05/20 09:20:43;;;;;;;2.60;1.73;;;18.70;99.90;;;15.13;70.62;94849.22;5034011;28;20188;-76
2021/05/20 09:23:18;;;;;;;2.60;1.60;;;16.40;99.90;;;13.97;70.66;94848.28;5048425;28;20188;-76
2021/05/20 09:25:47;;;;;;;0.97;0.80;;;15.00;99.90;;;13.16;70.24;94867.31;5031139;28;20179;-76
2021/05/20 09:28:15;;;;;;;0.50;0.40;;;13.90;99.90;;;12.64;70.62;94869.00;5048429;28;20235;-75
2021/05/20 09:30:44;;;;;;;0.60;0.57;;;13.00;99.90;;;12.15;70.44;94866.44;5043002;28;20662;-73
2021/05/20 09:33:19;;;;;;;0.50;0.50;;;12.30;99.90;;;11.76;70.10;94857.75;5048267;28;20173;-73
2021/05/20 09:35:51;;;;;;;1.67;0.60;;;11.70;99.90;;;11.72;70.08;94861.94;5047300;28;20211;-73
2021/05/20 09:38:21;;;;;;;0.93;0.60;;;11.40;99.90;;;11.77;70.05;94883.25;5037000;28;20737;-74
2021/05/20 09:41:03;;;;;;;0.67;0.43;;;11.30;99.90;;;13.76;69.87;94975.28;5048922;28;20210;-76
2021/05/20 09:43:33;;;;;;;0.80;0.40;;;12.70;99.90;;;16.51;70.21;94938.66;5048666;28;20166;-74
2021/05/20 09:46:15;;;;;;;0.30;0.30;;;15.60;99.90;;;17.47;69.89;94876.34;5049683;28;20183;-73
2021/05/20 09:48:49;;;;;;;0.60;0.37;;;17.20;99.90;;;18.39;69.76;94896.53;5027528;28;20710;-72
2021/05/20 09:51:28;;;;;;;0.40;0.40;;;18.10;99.90;;;18.85;69.59;94924.38;5021040;28;20164;-73
2021/05/20 09:53:57;;;;;;;1.67;0.50;;;18.50;99.90;;;20.55;69.61;94875.09;5049465;28;20179;-75
2021/05/20 09:56:34;;;;;;;1.07;0.50;;;20.60;99.90;;;23.09;69.14;94919.50;5054240;28;20215;-72
2021/05/20 09:59:01;;;;;;;1.00;0.60;;;23.70;99.90;;;24.64;68.83;94906.41;5039302;28;20696;-74
2021/05/20 10:01:27;;;;;;;1.00;0.73;;;26.10;99.30;;;26.58;68.88;94941.75;5048383;28;20195;-73
2021/05/20 10:03:57;;;;;;;1.23;0.77;;;28.00;90.90;;;27.74;68.08;94877.19;5039166;28;20195;-76
2021/05/20 10:06:40;;;;;;;1.90;0.70;;;29.90;83.80;;;26.87;67.71;94824.53;5048771;28;20245;-75
2021/05/20 10:09:09;;;;;;;1.30;0.60;;;29.80;79.30;;;27.05;67.67;94855.78;5028601;28;20178;-75
2021/05/20 10:11:37;;;;;;;0.60;0.60;;;29.90;75.10;;;28.23;66.65;94901.47;5030074;28;20172;-73
2021/05/20 10:14:05;;;;;;;1.07;0.70;;;30.50;70.30;;;28.38;66.68;94866.00;5029549;28;20282;-73
2021/05/20 10:16:38;;;;;;;0.50;0.50;;;30.40;70.70;;;28.11;66.16;94924.16;5033450;28;20433;-73
2021/05/20 10:19:07;;;;;;;0.60;0.60;;;30.30;65.60;;;28.42;65.30;94839.63;5048180;28;20244;-75
2021/05/20 10:21:35;;;;;;;0.80;0.50;;;30.70;65.90;;;29.60;64.76;94871.09;5048943;28;20811;-73
2021/05/20 10:24:01;;;;;;;0.50;0.50;;;31.90;63.40;;;29.84;64.67;94798.91;5044684;28;20176;-73
2021/05/20 10:26:27;;;;;;;0.80;0.50;;;32.30;61.60;;;30.27;63.58;94901.63;5035035;28;20275;-73
2021/05/20 10:28:53;;;;;;;0.60;0.60;;;33.10;60.30;;;29.71;63.56;94789.28;5038973;28;20244;-73
2021/05/20 10:31:19;;;;;;;0.50;0.50;;;32.50;55.80;;;27.55;63.68;94742.78;5047898;28;20184;-72
2021/05/20 10:33:46;;;;;;;1.27;0.67;;;30.50;60.30;;;25.04;62.98;94726.94;5032939;28;20183;-73
2021/05/20 10:36:25;;;;;;;1.57;0.70;;;28.40;62.60;;;23.32;62.64;94799.19;5044785;28;20279;-73
2021/05/20 10:38:54;;;;;;;0.70;0.50;;;26.10;68.10;;;24.22;62.36;94908.22;5042836;28;20176;-73